sensor_id;sensor_type;location;lat;lon;timestamp;pressure;altitude;pressure_sealevel;temperature;humidity
62708;BME280;48769;51.624;5.886;2023-08-24T00:02:09;101634.41;;;19.87;100.00
62708;BME280;48769;51.624;5.886;2023-08-24T00:04:35;101631.97;;;19.84;100.00
62708;BME280;48769;51.624;5.886;2023-08-24T00:07:01;101628.91;;;19.77;100.00
62708;BME280;48769;51.624;5.886;2023-08-24T00:09:27;101620.97;;;19.76;100.00
62708;BME280;48769;51.624;5.886;2023-08-24T00:11:52;101633.28;;;19.67;100.00
62708;BME280;48769;51.624;5.886;2023-08-24T00:14:18;101640.78;;;19.62;100.00
62708;BME280;48769;51.624;5.886;2023-08-24T00:16:43;101636.50;;;19.59;100.00
62708;BME280;48769;51.624;5.886;2023-08-24T00:19:09;101633.53;;;19.64;100.00
62708;BME280;48769;51.624;5.886;2023-08-24T00:21:34;101634.28;;;19.66;100.00
62708;BME280;48769;51.624;5.886;2023-08-24T00:23:59;101626.25;;;19.66;100.00
62708;BME280;48769;51.624;5.886;2023-08-24T00:26:25;101627.19;;;19.65;100.00
62708;BME280;48769;51.624;5.886;2023-08-24T00:28:50;101621.97;;;19.64;100.00
62708;BME280;48769;51.624;5.886;2023-08-24T00:31:15;101619.34;;;19.62;100.00
62708;BME280;48769;51.624;5.886;2023-08-24T00:33:41;101618.63;;;19.60;100.00
62708;BME280;48769;51.624;5.886;2023-08-24T00:36:07;101621.03;;;19.52;100.00
62708;BME280;48769;51.624;5.886;2023-08-24T00:38:32;101628.97;;;19.53;100.00
62708;BME280;48769;51.624;5.886;2023-08-24T00:40:58;101634.44;;;19.52;100.00
62708;BME280;48769;51.624;5.886;2023-08-24T00:43:27;101630.38;;;19.35;100.00
62708;BME280;48769;51.624;5.886;2023-08-24T00:45:58;101645.53;;;19.23;100.00
62708;BME280;48769;51.624;5.886;2023-08-24T00:48:25;101642.59;;;19.15;100.00
62708;BME280;48769;51.624;5.886;2023-08-24T00:51:01;101633.34;;;19.19;100.00
62708;BME280;48769;51.624;5.886;2023-08-24T00:53:28;101623.25;;;19.23;100.00
62708;BME280;48769;51.624;5.886;2023-08-24T00:55:54;101615.34;;;19.21;100.00
62708;BME280;48769;51.624;5.886;2023-08-24T00:58:20;101611.69;;;19.22;100.00
62708;BME280;48769;51.624;5.886;2023-08-24T01:00:45;101626.06;;;19.21;100.00
62708;BME280;48769;51.624;5.886;2023-08-24T01:03:11;101633.34;;;19.19;100.00
62708;BME280;48769;51.624;5.886;2023-08-24T01:05:36;101628.84;;;19.20;100.00
62708;BME280;48769;51.624;5.886;2023-08-24T01:08:01;101622.41;;;19.22;100.00
62708;BME280;48769;51.624;5.886;2023-08-24T01:10:34;101615.13;;;19.24;100.00
62708;BME280;48769;51.624;5.886;2023-08-24T01:13:10;101608.03;;;19.23;100.00
62708;BME280;48769;51.624;5.886;2023-08-24T01:15:41;101616.31;;;19.20;100.00
62708;BME280;48769;51.624;5.886;2023-08-24T01:18:14;101614.84;;;19.16;100.00
62708;BME280;48769;51.624;5.886;2023-08-24T01:20:42;101621.16;;;19.15;100.00
62708;BME280;48769;51.624;5.886;2023-08-24T01:23:36;101612.38;;;19.13;100.00
62708;BME280;48769;51.624;5.886;2023-08-24T01:26:20;101613.06;;;19.04;100.00
62708;BME280;48769;51.624;5.886;2023-08-24T01:28:46;101612.44;;;19.00;100.00
62708;BME280;48769;51.624;5.886;2023-08-24T01:31:15;101603.34;;;19.03;100.00
62708;BME280;48769;51.624;5.886;2023-08-24T01:33:41;101603.34;;;19.03;100.00
62708;BME280;48769;51.624;5.886;2023-08-24T01:36:08;101599.59;;;19.05;100.00
62708;BME280;48769;51.624;5.886;2023-08-24T01:38:34;101606.88;;;19.03;100.00
62708;BME280;48769;51.624;5.886;2023-08-24T01:41:17;101606.69;;;18.94;100.00
62708;BME280;48769;51.624;5.886;2023-08-24T01:43:46;101611.06;;;18.95;100.00
62708;BME280;48769;51.624;5.886;2023-08-24T01:46:15;101604.53;;;18.99;100.00
62708;BME280;48769;51.624;5.886;2023-08-24T01:48:42;101598.22;;;19.00;100.00
62708;BME280;48769;51.624;5.886;2023-08-24T01:51:08;101592.09;;;18.98;100.00
62708;BME280;48769;51.624;5.886;2023-08-24T01:53:35;101590.41;;;18.97;100.00
62708;BME280;48769;51.624;5.886;2023-08-24T01:56:08;101590.41;;;18.97;100.00
62708;BME280;48769;51.624;5.886;2023-08-24T01:58:33;101595.75;;;18.97;100.00
62708;BME280;48769;51.624;5.886;2023-08-24T02:00:59;101596.38;;;19.00;100.00
62708;BME280;48769;51.624;5.886;2023-08-24T02:03:24;101582.66;;;19.05;100.00
62708;BME280;48769;51.624;5.886;2023-08-24T02:05:49;101587.78;;;19.08;100.00
62708;BME280;48769;51.624;5.886;2023-08-24T02:08:14;101585.84;;;19.10;100.00
62708;BME280;48769;51.624;5.886;2023-08-24T02:10:40;101589.25;;;19.12;100.00
62708;BME280;48769;51.624;5.886;2023-08-24T02:13:05;101594.38;;;19.15;100.00
62708;BME280;48769;51.624;5.886;2023-08-24T02:15:30;101595.84;;;19.19;100.00
62708;BME280;48769;51.624;5.886;2023-08-24T02:17:56;101595.84;;;19.19;100.00
62708;BME280;48769;51.624;5.886;2023-08-24T02:20:21;101603.53;;;19.24;100.00
62708;BME280;48769;51.624;5.886;2023-08-24T02:22:46;101599.53;;;19.29;100.00
62708;BME280;48769;51.624;5.886;2023-08-24T02:25:11;101600.50;;;19.28;100.00
62708;BME280;48769;51.624;5.886;2023-08-24T02:27:37;101611.22;;;19.28;100.00
62708;BME280;48769;51.624;5.886;2023-08-24T02:30:02;101602.34;;;19.28;100.00
62708;BME280;48769;51.624;5.886;2023-08-24T02:32:27;101595.03;;;19.30;100.00
62708;BME280;48769;51.624;5.886;2023-08-24T02:34:53;101584.22;;;19.31;100.00
62708;BME280;48769;51.624;5.886;2023-08-24T02:37:18;101582.50;;;19.30;100.00
62708;BME280;48769;51.624;5.886;2023-08-24T02:39:43;101567.75;;;19.25;100.00
62708;BME280;48769;51.624;5.886;2023-08-24T02:42:09;101575.88;;;19.23;100.00
62708;BME280;48769;51.624;5.886;2023-08-24T02:44:34;101598.31;;;19.22;100.00
62708;BME280;48769;51.624;5.886;2023-08-24T02:47:00;101592.94;;;19.22;100.00
62708;BME280;48769;51.624;5.886;2023-08-24T02:49:25;101582.97;;;19.24;100.00
62708;BME280;48769;51.624;5.886;2023-08-24T02:51:50;101583.22;;;19.21;100.00
62708;BME280;48769;51.624;5.886;2023-08-24T02:54:15;101594.78;;;19.22;100.00
62708;BME280;48769;51.624;5.886;2023-08-24T02:56:41;101584.91;;;19.22;100.00
62708;BME280;48769;51.624;5.886;2023-08-24T02:59:06;101580.28;;;19.24;100.00
62708;BME280;48769;51.624;5.886;2023-08-24T03:01:31;101575.03;;;19.23;100.00
62708;BME280;48769;51.624;5.886;2023-08-24T03:03:57;101567.97;;;19.22;100.00
62708;BME280;48769;51.624;5.886;2023-08-24T03:06:22;101562.88;;;19.19;100.00
62708;BME280;48769;51.624;5.886;2023-08-24T03:08:51;101559.56;;;19.15;100.00
62708;BME280;48769;51.624;5.886;2023-08-24T03:11:16;101552.00;;;19.09;100.00
62708;BME280;48769;51.624;5.886;2023-08-24T03:13:42;101551.16;;;19.08;100.00
62708;BME280;48769;51.624;5.886;2023-08-24T03:16:08;101542.97;;;19.10;100.00
62708;BME280;48769;51.624;5.886;2023-08-24T03:18:33;101542.97;;;19.10;100.00
62708;BME280;48769;51.624;5.886;2023-08-24T03:20:59;101528.63;;;19.11;100.00
62708;BME280;48769;51.624;5.886;2023-08-24T03:23:25;101515.34;;;19.09;100.00
62708;BME280;48769;51.624;5.886;2023-08-24T03:25:50;101527.38;;;19.04;100.00
62708;BME280;48769;51.624;5.886;2023-08-24T03:28:15;101512.13;;;18.93;100.00
62708;BME280;48769;51.624;5.886;2023-08-24T03:30:51;101488.75;;;18.84;100.00
62708;BME280;48769;51.624;5.886;2023-08-24T03:33:17;101469.66;;;18.64;100.00
62708;BME280;48769;51.624;5.886;2023-08-24T03:35:43;101462.06;;;18.47;100.00
62708;BME280;48769;51.624;5.886;2023-08-24T03:38:09;101458.25;;;18.38;100.00
62708;BME280;48769;51.624;5.886;2023-08-24T03:40:34;101445.38;;;18.19;100.00
62708;BME280;48769;51.624;5.886;2023-08-24T03:43:01;101434.28;;;18.13;100.00
62708;BME280;48769;51.624;5.886;2023-08-24T03:45:27;101432.31;;;18.04;100.00
62708;BME280;48769;51.624;5.886;2023-08-24T03:47:52;101432.69;;;17.86;100.00
62708;BME280;48769;51.624;5.886;2023-08-24T03:50:21;101432.44;;;17.89;100.00
62708;BME280;48769;51.624;5.886;2023-08-24T03:52:49;101429.22;;;17.97;100.00
62708;BME280;48769;51.624;5.886;2023-08-24T03:55:15;101422.84;;;17.87;100.00
62708;BME280;48769;51.624;5.886;2023-08-24T03:57:40;101423.81;;;17.86;100.00
62708;BME280;48769;51.624;5.886;2023-08-24T04:00:06;101421.53;;;17.92;100.00
62708;BME280;48769;51.624;5.886;2023-08-24T04:02:36;101420.88;;;18.02;100.00
62708;BME280;48769;51.624;5.886;2023-08-24T04:05:01;101404.59;;;18.05;100.00
62708;BME280;48769;51.624;5.886;2023-08-24T04:07:27;101396.34;;;18.08;100.00
62708;BME280;48769;51.624;5.886;2023-08-24T04:09:55;101403.31;;;18.10;100.00
62708;BME280;48769;51.624;5.886;2023-08-24T04:12:20;101416.09;;;18.18;100.00
62708;BME280;48769;51.624;5.886;2023-08-24T04:14:46;101434.34;;;18.24;100.00
62708;BME280;48769;51.624;5.886;2023-08-24T04:17:11;101440.72;;;18.34;100.00
62708;BME280;48769;51.624;5.886;2023-08-24T04:19:37;101446.34;;;18.42;100.00
62708;BME280;48769;51.624;5.886;2023-08-24T04:22:06;101439.69;;;18.48;100.00
62708;BME280;48769;51.624;5.886;2023-08-24T04:24:31;101435.31;;;18.47;100.00
62708;BME280;48769;51.624;5.886;2023-08-24T04:26:56;101431.66;;;18.48;100.00
62708;BME280;48769;51.624;5.886;2023-08-24T04:29:22;101433.25;;;18.51;100.00
62708;BME280;48769;51.624;5.886;2023-08-24T04:31:47;101436.44;;;18.56;100.00
62708;BME280;48769;51.624;5.886;2023-08-24T04:34:15;101434.25;;;18.61;100.00
62708;BME280;48769;51.624;5.886;2023-08-24T04:36:41;101439.38;;;18.64;100.00
62708;BME280;48769;51.624;5.886;2023-08-24T04:39:06;101443.03;;;18.63;100.00
62708;BME280;48769;51.624;5.886;2023-08-24T04:41:31;101447.31;;;18.65;100.00
62708;BME280;48769;51.624;5.886;2023-08-24T04:43:56;101458.84;;;18.66;100.00
62708;BME280;48769;51.624;5.886;2023-08-24T04:46:25;101445.47;;;18.66;100.00
62708;BME280;48769;51.624;5.886;2023-08-24T04:48:51;101455.66;;;18.61;100.00
62708;BME280;48769;51.624;5.886;2023-08-24T04:51:19;101441.44;;;18.60;100.00
62708;BME280;48769;51.624;5.886;2023-08-24T04:53:44;101430.81;;;18.59;100.00
62708;BME280;48769;51.624;5.886;2023-08-24T04:56:12;101429.13;;;18.58;100.00
62708;BME280;48769;51.624;5.886;2023-08-24T04:58:37;101441.53;;;18.59;100.00
62708;BME280;48769;51.624;5.886;2023-08-24T05:01:03;101445.41;;;18.55;100.00
62708;BME280;48769;51.624;5.886;2023-08-24T05:03:29;101437.16;;;18.58;100.00
62708;BME280;48769;51.624;5.886;2023-08-24T05:05:54;101437.91;;;18.60;100.00
62708;BME280;48769;51.624;5.886;2023-08-24T05:08:19;101436.19;;;18.59;100.00
62708;BME280;48769;51.624;5.886;2023-08-24T05:10:44;101436.19;;;18.59;100.00
62708;BME280;48769;51.624;5.886;2023-08-24T05:13:10;101429.97;;;18.58;100.00
62708;BME280;48769;51.624;5.886;2023-08-24T05:15:36;101421.97;;;18.58;100.00
62708;BME280;48769;51.624;5.886;2023-08-24T05:18:01;101429.88;;;18.60;100.00
62708;BME280;48769;51.624;5.886;2023-08-24T05:20:27;101429.38;;;18.55;100.00
62708;BME280;48769;51.624;5.886;2023-08-24T05:22:52;101429.38;;;18.55;100.00
62708;BME280;48769;51.624;5.886;2023-08-24T05:25:20;101427.22;;;18.60;100.00
62708;BME280;48769;51.624;5.886;2023-08-24T05:27:45;101431.34;;;18.64;100.00
62708;BME280;48769;51.624;5.886;2023-08-24T05:30:11;101431.88;;;18.69;100.00
62708;BME280;48769;51.624;5.886;2023-08-24T05:32:36;101432.56;;;18.71;100.00
62708;BME280;48769;51.624;5.886;2023-08-24T05:35:05;101432.16;;;18.77;100.00
62708;BME280;48769;51.624;5.886;2023-08-24T05:37:32;101431.81;;;18.82;100.00
62708;BME280;48769;51.624;5.886;2023-08-24T05:39:57;101433.28;;;18.86;100.00
62708;BME280;48769;51.624;5.886;2023-08-24T05:42:22;101439.00;;;18.92;100.00
62708;BME280;48769;51.624;5.886;2023-08-24T05:44:48;101445.81;;;18.97;100.00
62708;BME280;48769;51.624;5.886;2023-08-24T05:47:13;101434.88;;;19.00;100.00
62708;BME280;48769;51.624;5.886;2023-08-24T05:49:38;101437.56;;;19.00;100.00
62708;BME280;48769;51.624;5.886;2023-08-24T05:52:03;101430.97;;;19.04;100.00
62708;BME280;48769;51.624;5.886;2023-08-24T05:54:29;101416.16;;;19.11;100.00
62708;BME280;48769;51.624;5.886;2023-08-24T05:56:54;101415.16;;;19.23;100.00
62708;BME280;48769;51.624;5.886;2023-08-24T05:59:19;101408.00;;;19.57;100.00
62708;BME280;48769;51.624;5.886;2023-08-24T06:01:45;101401.97;;;19.99;100.00
62708;BME280;48769;51.624;5.886;2023-08-24T06:04:11;101389.88;;;20.04;100.00
62708;BME280;48769;51.624;5.886;2023-08-24T06:06:37;101391.69;;;20.15;100.00
62708;BME280;48769;51.624;5.886;2023-08-24T06:09:03;101385.78;;;20.21;100.00
62708;BME280;48769;51.624;5.886;2023-08-24T06:11:34;101384.03;;;20.31;100.00
62708;BME280;48769;51.624;5.886;2023-08-24T06:13:59;101378.63;;;20.43;100.00
62708;BME280;48769;51.624;5.886;2023-08-24T06:16:24;101373.72;;;20.48;100.00
62708;BME280;48769;51.624;5.886;2023-08-24T06:18:50;101365.25;;;20.64;100.00
62708;BME280;48769;51.624;5.886;2023-08-24T06:21:16;101363.38;;;20.85;100.00
62708;BME280;48769;51.624;5.886;2023-08-24T06:23:41;101356.09;;;20.76;100.00
62708;BME280;48769;51.624;5.886;2023-08-24T06:26:07;101337.38;;;20.86;100.00
62708;BME280;48769;51.624;5.886;2023-08-24T06:28:32;101335.34;;;20.78;100.00
62708;BME280;48769;51.624;5.886;2023-08-24T06:30:59;101335.03;;;20.71;100.00
62708;BME280;48769;51.624;5.886;2023-08-24T06:33:28;101328.94;;;20.69;100.00
62708;BME280;48769;51.624;5.886;2023-08-24T06:35:56;101337.84;;;20.70;100.00
62708;BME280;48769;51.624;5.886;2023-08-24T06:38:21;101349.13;;;20.64;100.00
62708;BME280;48769;51.624;5.886;2023-08-24T06:40:46;101346.56;;;20.62;100.00
62708;BME280;48769;51.624;5.886;2023-08-24T06:43:12;101346.50;;;20.73;100.00
62708;BME280;48769;51.624;5.886;2023-08-24T06:45:37;101352.06;;;20.82;100.00
62708;BME280;48769;51.624;5.886;2023-08-24T06:48:02;101354.94;;;20.90;100.00
62708;BME280;48769;51.624;5.886;2023-08-24T06:50:28;101364.16;;;20.97;100.00
62708;BME280;48769;51.624;5.886;2023-08-24T06:52:53;101366.88;;;21.07;100.00
62708;BME280;48769;51.624;5.886;2023-08-24T06:55:19;101372.09;;;21.08;100.00
62708;BME280;48769;51.624;5.886;2023-08-24T06:57:47;101365.66;;;21.20;100.00
62708;BME280;48769;51.624;5.886;2023-08-24T07:00:13;101369.25;;;21.31;100.00
62708;BME280;48769;51.624;5.886;2023-08-24T07:02:40;101364.00;;;21.29;100.00
62708;BME280;48769;51.624;5.886;2023-08-24T07:05:06;101357.06;;;21.27;100.00
62708;BME280;48769;51.624;5.886;2023-08-24T07:07:33;101359.06;;;21.34;100.00
62708;BME280;48769;51.624;5.886;2023-08-24T07:09:58;101346.81;;;21.41;100.00
62708;BME280;48769;51.624;5.886;2023-08-24T07:12:24;101344.75;;;21.55;100.00
62708;BME280;48769;51.624;5.886;2023-08-24T07:14:49;101335.53;;;21.57;100.00
62708;BME280;48769;51.624;5.886;2023-08-24T07:17:14;101337.84;;;21.72;100.00
62708;BME280;48769;51.624;5.886;2023-08-24T07:19:40;101348.72;;;21.80;100.00
62708;BME280;48769;51.624;5.886;2023-08-24T07:22:05;101342.81;;;21.96;100.00
62708;BME280;48769;51.624;5.886;2023-08-24T07:24:31;101336.56;;;22.14;100.00
62708;BME280;48769;51.624;5.886;2023-08-24T07:26:58;101344.53;;;22.26;100.00
62708;BME280;48769;51.624;5.886;2023-08-24T07:29:23;101341.97;;;22.14;100.00
62708;BME280;48769;51.624;5.886;2023-08-24T07:31:49;101345.06;;;22.29;100.00
62708;BME280;48769;51.624;5.886;2023-08-24T07:34:14;101342.53;;;22.47;100.00
62708;BME280;48769;51.624;5.886;2023-08-24T07:36:40;101345.31;;;22.55;100.00
62708;BME280;48769;51.624;5.886;2023-08-24T07:39:07;101334.84;;;22.62;100.00
62708;BME280;48769;51.624;5.886;2023-08-24T07:41:32;101340.22;;;22.72;100.00
62708;BME280;48769;51.624;5.886;2023-08-24T07:43:58;101343.19;;;22.69;100.00
62708;BME280;48769;51.624;5.886;2023-08-24T07:46:23;101331.53;;;22.78;100.00
62708;BME280;48769;51.624;5.886;2023-08-24T07:48:48;101322.28;;;22.90;100.00
62708;BME280;48769;51.624;5.886;2023-08-24T07:51:14;101317.03;;;22.98;100.00
62708;BME280;48769;51.624;5.886;2023-08-24T07:53:39;101322.78;;;23.13;100.00
62708;BME280;48769;51.624;5.886;2023-08-24T07:56:04;101320.13;;;23.31;100.00
62708;BME280;48769;51.624;5.886;2023-08-24T07:58:30;101318.38;;;23.40;100.00
62708;BME280;48769;51.624;5.886;2023-08-24T08:00:57;101316.91;;;23.45;100.00
62708;BME280;48769;51.624;5.886;2023-08-24T08:03:22;101312.91;;;23.49;100.00
62708;BME280;48769;51.624;5.886;2023-08-24T08:05:48;101303.84;;;23.50;100.00
62708;BME280;48769;51.624;5.886;2023-08-24T08:08:14;101319.25;;;23.40;100.00
62708;BME280;48769;51.624;5.886;2023-08-24T08:10:40;101313.84;;;23.40;100.00
62708;BME280;48769;51.624;5.886;2023-08-24T08:13:07;101311.09;;;23.50;100.00
62708;BME280;48769;51.624;5.886;2023-08-24T08:15:32;101305.63;;;23.60;100.00
62708;BME280;48769;51.624;5.886;2023-08-24T08:17:58;101301.19;;;23.68;100.00
62708;BME280;48769;51.624;5.886;2023-08-24T08:20:23;101295.47;;;23.71;100.00
62708;BME280;48769;51.624;5.886;2023-08-24T08:22:48;101304.84;;;23.67;100.00
62708;BME280;48769;51.624;5.886;2023-08-24T08:25:14;101310.53;;;23.74;100.00
62708;BME280;48769;51.624;5.886;2023-08-24T08:27:39;101309.28;;;23.86;100.00
62708;BME280;48769;51.624;5.886;2023-08-24T08:30:05;101302.31;;;24.01;100.00
62708;BME280;48769;51.624;5.886;2023-08-24T08:32:31;101300.41;;;24.12;100.00
62708;BME280;48769;51.624;5.886;2023-08-24T08:34:56;101305.88;;;24.20;100.00
62708;BME280;48769;51.624;5.886;2023-08-24T08:37:25;101307.78;;;24.27;100.00
62708;BME280;48769;51.624;5.886;2023-08-24T08:39:50;101309.00;;;24.33;100.00
62708;BME280;48769;51.624;5.886;2023-08-24T08:42:16;101305.97;;;24.36;100.00
62708;BME280;48769;51.624;5.886;2023-08-24T08:44:44;101309.47;;;24.46;100.00
62708;BME280;48769;51.624;5.886;2023-08-24T08:47:11;101289.28;;;24.59;100.00
62708;BME280;48769;51.624;5.886;2023-08-24T08:49:38;101290.03;;;24.69;100.00
62708;BME280;48769;51.624;5.886;2023-08-24T08:52:04;101280.56;;;24.73;100.00
62708;BME280;48769;51.624;5.886;2023-08-24T08:54:30;101280.25;;;24.76;100.00
62708;BME280;48769;51.624;5.886;2023-08-24T08:56:56;101268.72;;;24.66;100.00
62708;BME280;48769;51.624;5.886;2023-08-24T08:59:22;101259.31;;;24.70;100.00
62708;BME280;48769;51.624;5.886;2023-08-24T09:01:48;101251.03;;;24.71;100.00
62708;BME280;48769;51.624;5.886;2023-08-24T09:04:16;101247.13;;;24.66;100.00
62708;BME280;48769;51.624;5.886;2023-08-24T09:06:41;101233.13;;;24.70;100.00
62708;BME280;48769;51.624;5.886;2023-08-24T09:09:07;101222.53;;;24.77;100.00
62708;BME280;48769;51.624;5.886;2023-08-24T09:11:33;101212.91;;;24.83;100.00
62708;BME280;48769;51.624;5.886;2023-08-24T09:13:58;101216.66;;;24.90;100.00
62708;BME280;48769;51.624;5.886;2023-08-24T09:16:29;101203.81;;;24.92;100.00
62708;BME280;48769;51.624;5.886;2023-08-24T09:18:54;101202.97;;;24.91;100.00
62708;BME280;48769;51.624;5.886;2023-08-24T09:21:20;101180.00;;;24.87;100.00
62708;BME280;48769;51.624;5.886;2023-08-24T09:23:53;101166.50;;;24.95;100.00
62708;BME280;48769;51.624;5.886;2023-08-24T09:26:33;101167.88;;;25.00;100.00
62708;BME280;48769;51.624;5.886;2023-08-24T09:29:00;101167.03;;;25.07;100.00
62708;BME280;48769;51.624;5.886;2023-08-24T09:31:36;101166.75;;;25.18;100.00
62708;BME280;48769;51.624;5.886;2023-08-24T09:34:05;101159.16;;;25.22;100.00
62708;BME280;48769;51.624;5.886;2023-08-24T09:36:35;101154.94;;;25.28;100.00
62708;BME280;48769;51.624;5.886;2023-08-24T09:39:01;101159.53;;;25.35;100.00
62708;BME280;48769;51.624;5.886;2023-08-24T09:41:46;101152.75;;;25.39;100.00
62708;BME280;48769;51.624;5.886;2023-08-24T09:44:13;101155.44;;;25.48;100.00
62708;BME280;48769;51.624;5.886;2023-08-24T09:46:39;101143.28;;;25.52;100.00
62708;BME280;48769;51.624;5.886;2023-08-24T09:49:06;101161.22;;;25.61;100.00
62708;BME280;48769;51.624;5.886;2023-08-24T09:51:33;101178.13;;;25.71;100.00
62708;BME280;48769;51.624;5.886;2023-08-24T09:54:04;101188.28;;;25.77;100.00
62708;BME280;48769;51.624;5.886;2023-08-24T09:56:34;101209.59;;;25.80;100.00
62708;BME280;48769;51.624;5.886;2023-08-24T09:59:05;101205.50;;;25.76;100.00
62708;BME280;48769;51.624;5.886;2023-08-24T10:01:32;101215.00;;;25.80;100.00
62708;BME280;48769;51.624;5.886;2023-08-24T10:03:59;101215.00;;;25.80;100.00
62708;BME280;48769;51.624;5.886;2023-08-24T10:06:27;101204.53;;;25.85;100.00
62708;BME280;48769;51.624;5.886;2023-08-24T10:08:57;101216.88;;;25.88;100.00
62708;BME280;48769;51.624;5.886;2023-08-24T10:11:30;101213.97;;;25.90;100.00
62708;BME280;48769;51.624;5.886;2023-08-24T10:17:16;101205.22;;;25.87;100.00
62708;BME280;48769;51.624;5.886;2023-08-24T10:19:42;101199.59;;;25.89;100.00
62708;BME280;48769;51.624;5.886;2023-08-24T10:22:08;101199.44;;;25.91;100.00
62708;BME280;48769;51.624;5.886;2023-08-24T10:24:35;101193.88;;;25.84;100.00
62708;BME280;48769;51.624;5.886;2023-08-24T10:27:02;101197.75;;;25.81;100.00
62708;BME280;48769;51.624;5.886;2023-08-24T10:29:29;101193.69;;;25.77;100.00
62708;BME280;48769;51.624;5.886;2023-08-24T10:31:55;101189.13;;;25.86;100.00
62708;BME280;48769;51.624;5.886;2023-08-24T10:34:22;101191.34;;;25.91;100.00
62708;BME280;48769;51.624;5.886;2023-08-24T10:36:48;101180.66;;;25.89;100.00
62708;BME280;48769;51.624;5.886;2023-08-24T10:39:14;101175.75;;;25.93;100.00
62708;BME280;48769;51.624;5.886;2023-08-24T10:41:50;101167.31;;;25.87;100.00
62708;BME280;48769;51.624;5.886;2023-08-24T10:44:20;101172.03;;;25.77;100.00
62708;BME280;48769;51.624;5.886;2023-08-24T10:49:40;101171.34;;;25.59;100.00
62708;BME280;48769;51.624;5.886;2023-08-24T10:52:34;101170.00;;;25.47;100.00
62708;BME280;48769;51.624;5.886;2023-08-24T10:55:02;101178.09;;;25.47;100.00
62708;BME280;48769;51.624;5.886;2023-08-24T10:57:39;101181.16;;;25.44;100.00
62708;BME280;48769;51.624;5.886;2023-08-24T11:00:11;101174.72;;;25.36;100.00
62708;BME280;48769;51.624;5.886;2023-08-24T11:02:57;101194.69;;;25.35;100.00
62708;BME280;48769;51.624;5.886;2023-08-24T11:05:23;101204.13;;;25.31;100.00
62708;BME280;48769;51.624;5.886;2023-08-24T11:08:05;101212.91;;;25.25;100.00
62708;BME280;48769;51.624;5.886;2023-08-24T11:10:34;101222.84;;;25.25;100.00
62708;BME280;48769;51.624;5.886;2023-08-24T11:15:43;101212.03;;;25.16;100.00
62708;BME280;48769;51.624;5.886;2023-08-24T11:18:25;101202.44;;;25.22;100.00
62708;BME280;48769;51.624;5.886;2023-08-24T11:21:02;101190.94;;;25.20;100.00
62708;BME280;48769;51.624;5.886;2023-08-24T11:23:28;101175.72;;;25.27;100.00
62708;BME280;48769;51.624;5.886;2023-08-24T11:25:55;101166.28;;;25.39;100.00
62708;BME280;48769;51.624;5.886;2023-08-24T11:28:25;101173.88;;;25.52;100.00
62708;BME280;48769;51.624;5.886;2023-08-24T11:30:52;101186.75;;;25.58;100.00
62708;BME280;48769;51.624;5.886;2023-08-24T11:33:27;101177.28;;;25.71;100.00
62708;BME280;48769;51.624;5.886;2023-08-24T11:35:54;101179.13;;;25.78;100.00
62708;BME280;48769;51.624;5.886;2023-08-24T11:38:20;101179.47;;;25.92;100.00
62708;BME280;48769;51.624;5.886;2023-08-24T11:40:45;101180.81;;;26.04;100.00
62708;BME280;48769;51.624;5.886;2023-08-24T11:43:10;101171.53;;;26.06;100.00
62708;BME280;48769;51.624;5.886;2023-08-24T11:45:37;101169.31;;;26.10;100.00
62708;BME280;48769;51.624;5.886;2023-08-24T11:48:03;101153.06;;;26.02;100.00
62708;BME280;48769;51.624;5.886;2023-08-24T11:50:33;101135.47;;;25.98;100.00
62708;BME280;48769;51.624;5.886;2023-08-24T11:53:00;101116.34;;;25.99;100.00
62708;BME280;48769;51.624;5.886;2023-08-24T11:55:26;101123.78;;;26.05;100.00
62708;BME280;48769;51.624;5.886;2023-08-24T11:57:53;101111.28;;;25.96;100.00
62708;BME280;48769;51.624;5.886;2023-08-24T12:00:20;101099.44;;;25.97;100.00
62708;BME280;48769;51.624;5.886;2023-08-24T12:02:47;101099.13;;;25.92;100.00
62708;BME280;48769;51.624;5.886;2023-08-24T12:05:22;101079.47;;;25.90;100.00
62708;BME280;48769;51.624;5.886;2023-08-24T12:07:49;101071.91;;;25.85;100.00
62708;BME280;48769;51.624;5.886;2023-08-24T12:10:14;101070.88;;;25.70;100.00
62708;BME280;48769;51.624;5.886;2023-08-24T12:12:39;101073.28;;;25.65;100.00
62708;BME280;48769;51.624;5.886;2023-08-24T12:15:05;101069.38;;;25.59;100.00
62708;BME280;48769;51.624;5.886;2023-08-24T12:17:30;101054.19;;;25.50;100.00
62708;BME280;48769;51.624;5.886;2023-08-24T12:20:07;101046.41;;;25.47;100.00
62708;BME280;48769;51.624;5.886;2023-08-24T12:22:35;101043.69;;;25.47;100.00
62708;BME280;48769;51.624;5.886;2023-08-24T12:25:02;101044.22;;;25.42;100.00
62708;BME280;48769;51.624;5.886;2023-08-24T12:27:27;101030.84;;;25.41;100.00
62708;BME280;48769;51.624;5.886;2023-08-24T12:29:53;101020.91;;;25.41;100.00
62708;BME280;48769;51.624;5.886;2023-08-24T12:32:20;101023.63;;;25.41;100.00
62708;BME280;48769;51.624;5.886;2023-08-24T12:34:47;101035.78;;;25.46;100.00
62708;BME280;48769;51.624;5.886;2023-08-24T12:37:13;101044.69;;;25.54;100.00
62708;BME280;48769;51.624;5.886;2023-08-24T12:39:39;101043.34;;;25.58;100.00
62708;BME280;48769;51.624;5.886;2023-08-24T12:42:05;101036.78;;;25.53;100.00
62708;BME280;48769;51.624;5.886;2023-08-24T12:44:30;101034.06;;;25.53;100.00
62708;BME280;48769;51.624;5.886;2023-08-24T12:46:55;101040.31;;;25.53;100.00
62708;BME280;48769;51.624;5.886;2023-08-24T12:49:21;101027.66;;;25.46;100.00